Time;durP1;ratioP1;P1;durP2;ratioP2;P2;SDS_P1;SDS_P2;PMS_P1;PMS_P2;Temp;Humidity;BMP_temperature;BMP_pressure;BME280_temperature;BME280_humidity;BME280_pressure;Samples;Min_cycle;Max_cycle;Signal;HPM_P1;HPM_P2
2022/03/31 00:00:38;;;;;;;;;;;9.80;99.90;;;;;;5096535;28;20033;-81
2022/03/31 00:03:05;;;;;;;;;;;9.80;99.90;;;;;;5092615;28;20929;-81
2022/03/31 00:05:30;;;;;;;;;;;9.80;99.90;;;;;;5095129;28;19958;-80
2022/03/31 00:08:09;;;;;;;;;;;9.80;99.90;;;;;;5093820;28;19916;-81
2022/03/31 00:10:40;;;;;;;;;;;9.80;99.90;;;;;;5095035;28;19916;-80
2022/03/31 00:13:06;;;;;;;;;;;9.80;99.90;;;;;;5093703;28;19947;-81
2022/03/31 00:15:33;;;;;;;;;;;9.80;99.90;;;;;;5095109;28;20372;-80
2022/03/31 00:17:59;;;;;;;;;;;9.80;99.90;;;;;;5094347;28;19999;-81
2022/03/31 00:32:37;;;;;;;;;;;9.70;99.90;;;;;;5093150;28;19970;-80
2022/03/31 00:35:04;;;;;;;;;;;9.60;99.90;;;;;;5096694;28;19913;-81
2022/03/31 00:37:39;;;;;;;;;;;9.50;99.90;;;;;;5097281;28;19916;-80
2022/03/31 00:40:05;;;;;;;;;;;9.40;99.90;;;;;;5096457;28;19914;-80
2022/03/31 00:42:31;;;;;;;;;;;9.30;99.90;;;;;;5095900;28;19919;-80
2022/03/31 00:44:56;;;;;;;;;;;9.30;99.90;;;;;;5097767;28;19919;-81
2022/03/31 00:47:22;;;;;;;;;;;9.20;99.90;;;;;;5097549;28;19916;-81
2022/03/31 00:49:48;;;;;;;;;;;9.20;99.90;;;;;;5096865;28;19916;-81
2022/03/31 00:52:13;;;;;;;;;;;9.20;99.90;;;;;;5092895;28;19937;-80
2022/03/31 00:54:40;;;;;;;;;;;9.20;99.90;;;;;;5096466;28;20010;-80
2022/03/31 00:57:07;;;;;;;;;;;9.20;99.90;;;;;;5096873;28;20391;-81
2022/03/31 00:59:33;;;;;;;;;;;9.20;99.90;;;;;;5094608;28;20452;-81
2022/03/31 01:01:59;;;;;;;;;;;9.20;99.90;;;;;;5095761;28;19965;-81
2022/03/31 01:04:26;;;;;;;;;;;9.20;99.90;;;;;;5096677;28;19974;-80
2022/03/31 01:06:52;;;;;;;;;;;9.10;99.90;;;;;;5096854;28;20025;-80
2022/03/31 01:09:18;;;;;;;;;;;9.10;99.90;;;;;;5092817;28;19984;-80
2022/03/31 01:11:45;;;;;;;;;;;9.00;99.90;;;;;;5096437;28;19943;-81
2022/03/31 01:14:11;;;;;;;;;;;8.90;99.90;;;;;;5094371;28;20418;-80
2022/03/31 01:16:37;;;;;;;;;;;8.90;99.90;;;;;;5097178;28;20303;-81
2022/03/31 01:19:06;;;;;;;;;;;8.90;99.90;;;;;;5095713;28;19965;-80
2022/03/31 01:21:41;;;;;;;;;;;8.90;99.90;;;;;;5094282;28;20253;-80
2022/03/31 01:24:07;;;;;;;;;;;8.90;99.90;;;;;;5089407;28;19954;-80
2022/03/31 01:26:34;;;;;;;;;;;8.90;1.00;;;;;;5093748;28;19994;-80
2022/03/31 01:29:00;;;;;;;;;;;8.90;1.00;;;;;;5092823;28;19924;-80
2022/03/31 01:31:26;;;;;;;;;;;8.90;1.00;;;;;;5095856;28;20015;-80
2022/03/31 01:33:52;;;;;;;;;;;8.90;1.00;;;;;;5092304;28;19970;-80
2022/03/31 01:36:19;;;;;;;;;;;9.00;1.00;;;;;;5089113;28;19912;-80
2022/03/31 01:38:45;;;;;;;;;;;9.00;1.00;;;;;;5091376;28;19912;-81
2022/03/31 01:41:10;;;;;;;;;;;9.00;1.00;;;;;;5094729;28;19919;-81
2022/03/31 01:43:36;;;;;;;;;;;9.00;1.00;;;;;;5095653;28;19916;-80
2022/03/31 01:46:01;;;;;;;;;;;8.90;41.90;;;;;;5092366;28;19912;-80
2022/03/31 01:48:27;;;;;;;;;;;9.00;99.90;;;;;;5095007;28;19919;-80
2022/03/31 01:50:52;;;;;;;;;;;9.00;99.90;;;;;;5093178;28;21821;-80
2022/03/31 01:53:21;;;;;;;;;;;8.90;99.90;;;;;;5093267;28;20113;-80
2022/03/31 01:55:46;;;;;;;;;;;8.90;99.90;;;;;;5093447;28;19967;-81
2022/03/31 01:58:12;;;;;;;;;;;8.90;99.90;;;;;;5095469;28;19920;-81
2022/03/31 02:00:38;;;;;;;;;;;8.90;99.90;;;;;;5093854;28;20036;-80
2022/03/31 02:03:04;;;;;;;;;;;8.90;99.90;;;;;;5095680;28;20006;-80
2022/03/31 02:05:29;;;;;;;;;;;8.90;99.90;;;;;;5094422;28;19916;-81
2022/03/31 02:07:57;;;;;;;;;;;8.80;99.90;;;;;;5096515;28;19931;-80
2022/03/31 02:10:26;;;;;;;;;;;8.80;99.90;;;;;;5096656;28;20257;-81
2022/03/31 02:12:52;;;;;;;;;;;8.70;99.90;;;;;;5100541;28;19923;-80
2022/03/31 02:15:20;;;;;;;;;;;8.60;99.90;;;;;;5095826;28;19916;-81
2022/03/31 02:17:46;;;;;;;;;;;8.60;1.00;;;;;;5095853;28;19919;-81
2022/03/31 02:20:12;;;;;;;;;;;8.60;1.00;;;;;;5095755;28;19935;-81
2022/03/31 02:22:38;;;;;;;;;;;8.60;1.00;;;;;;5095134;28;20513;-80
2022/03/31 02:25:05;;;;;;;;;;;8.60;16.20;;;;;;5095343;28;19912;-80
2022/03/31 02:27:30;;;;;;;;;;;8.60;1.00;;;;;;5097108;28;19916;-81
2022/03/31 02:29:55;;;;;;;;;;;8.50;1.00;;;;;;5094034;28;19981;-80
2022/03/31 02:32:21;;;;;;;;;;;8.50;99.90;;;;;;5095363;28;19983;-81
2022/03/31 02:34:46;;;;;;;;;;;8.50;40.80;;;;;;5095806;28;19919;-81
2022/03/31 02:37:12;;;;;;;;;;;8.60;5.00;;;;;;5095153;28;19920;-81
2022/03/31 02:39:37;;;;;;;;;;;8.60;1.00;;;;;;5092226;28;19912;-80
2022/03/31 02:42:03;;;;;;;;;;;8.50;1.00;;;;;;5094222;28;19975;-80
2022/03/31 02:44:28;;;;;;;;;;;8.50;1.00;;;;;;5095094;28;19969;-81
2022/03/31 02:46:54;;;;;;;;;;;8.40;1.00;;;;;;5093245;28;19912;-80
2022/03/31 02:49:20;;;;;;;;;;;8.40;1.00;;;;;;5094175;28;20007;-80
2022/03/31 02:51:46;;;;;;;;;;;8.30;48.60;;;;;;5092778;28;19912;-80
2022/03/31 02:56:55;;;;;;;;;;;8.10;99.90;;;;;;5085585;28;20016;-79
2022/03/31 02:59:21;;;;;;;;;;;8.00;1.00;;;;;;5094856;28;20415;-80
2022/03/31 03:01:46;;;;;;;;;;;7.90;99.90;;;;;;5091882;28;19935;-80
2022/03/31 03:04:12;;;;;;;;;;;7.80;99.90;;;;;;5095246;28;19920;-80
2022/03/31 03:06:38;;;;;;;;;;;7.80;99.90;;;;;;5093965;28;19913;-80
2022/03/31 03:09:04;;;;;;;;;;;7.70;99.90;;;;;;5093827;28;19916;-80
2022/03/31 03:11:29;;;;;;;;;;;7.70;99.90;;;;;;5096036;28;19919;-80
2022/03/31 03:13:55;;;;;;;;;;;7.70;99.90;;;;;;5093336;28;19965;-80
2022/03/31 03:16:21;;;;;;;;;;;7.70;51.20;;;;;;5095550;28;19919;-80
2022/03/31 03:18:46;;;;;;;;;;;7.70;1.00;;;;;;5094251;28;19973;-80
2022/03/31 03:21:12;;;;;;;;;;;7.60;1.00;;;;;;5094797;28;20043;-80
2022/03/31 03:23:38;;;;;;;;;;;7.60;1.00;;;;;;5095298;28;19912;-80
2022/03/31 03:26:04;;;;;;;;;;;7.60;99.90;;;;;;5094444;28;20344;-80
2022/03/31 03:28:36;;;;;;;;;;;7.60;1.00;;;;;;5094941;28;19916;-80
2022/03/31 03:31:02;;;;;;;;;;;7.60;99.90;;;;;;5093270;28;19916;-80
2022/03/31 03:33:28;;;;;;;;;;;7.60;99.90;;;;;;5126899;27;19919;-80
2022/03/31 03:35:54;;;;;;;;;;;7.60;99.90;;;;;;5093787;28;20380;-80
2022/03/31 03:38:19;;;;;;;;;;;7.60;99.90;;;;;;5099866;28;19912;-80
2022/03/31 03:40:45;;;;;;;;;;;7.60;99.90;;;;;;5097688;28;19967;-80
2022/03/31 03:43:10;;;;;;;;;;;7.60;99.90;;;;;;5098813;28;19912;-81
2022/03/31 03:45:37;;;;;;;;;;;7.60;1.00;;;;;;5098861;28;19919;-80
2022/03/31 03:48:03;;;;;;;;;;;7.50;1.00;;;;;;5097704;28;19919;-81
2022/03/31 03:50:28;;;;;;;;;;;7.50;1.00;;;;;;5100124;28;19920;-80
2022/03/31 03:52:54;;;;;;;;;;;7.40;1.00;;;;;;5096442;28;19959;-80
2022/03/31 03:55:20;;;;;;;;;;;7.50;99.90;;;;;;5097904;28;19919;-80
2022/03/31 03:57:45;;;;;;;;;;;7.50;99.90;;;;;;5097107;28;19912;-80
2022/03/31 04:00:11;;;;;;;;;;;7.50;99.90;;;;;;5098224;28;19919;-81
2022/03/31 04:02:37;;;;;;;;;;;7.50;99.90;;;;;;5097093;28;19912;-80
2022/03/31 04:05:03;;;;;;;;;;;7.50;99.90;;;;;;5097891;28;19922;-80
2022/03/31 04:07:28;;;;;;;;;;;7.40;99.90;;;;;;5097543;28;19915;-80
2022/03/31 04:09:54;;;;;;;;;;;7.50;99.90;;;;;;5097077;28;20287;-80
2022/03/31 04:12:19;;;;;;;;;;;7.50;99.90;;;;;;5097489;28;19912;-81
2022/03/31 04:14:44;;;;;;;;;;;7.50;99.90;;;;;;5092629;28;19919;-80
2022/03/31 04:17:10;;;;;;;;;;;7.60;99.90;;;;;;5097838;28;19934;-80
2022/03/31 04:19:35;;;;;;;;;;;7.70;99.90;;;;;;5097542;28;19925;-81
2022/03/31 04:22:01;;;;;;;;;;;7.80;1.00;;;;;;5095914;28;19964;-80
2022/03/31 04:24:26;;;;;;;;;;;7.90;99.90;;;;;;5093825;28;20026;-80
2022/03/31 04:26:52;;;;;;;;;;;8.00;99.90;;;;;;5094349;28;19920;-80
2022/03/31 04:29:17;;;;;;;;;;;8.00;99.90;;;;;;5093551;28;19920;-80
2022/03/31 04:31:43;;;;;;;;;;;8.10;99.90;;;;;;5086268;28;19995;-80
2022/03/31 04:34:10;;;;;;;;;;;8.00;1.00;;;;;;5127514;27;20288;-81
2022/03/31 04:36:35;;;;;;;;;;;8.10;1.00;;;;;;5093609;28;19915;-81
2022/03/31 04:39:01;;;;;;;;;;;8.10;1.00;;;;;;5092542;28;20264;-81
2022/03/31 04:41:27;;;;;;;;;;;8.10;1.00;;;;;;5093768;28;19950;-81
2022/03/31 04:43:53;;;;;;;;;;;8.10;1.00;;;;;;5090702;28;20011;-81
2022/03/31 04:46:19;;;;;;;;;;;8.10;1.00;;;;;;5092408;28;19920;-80
2022/03/31 04:48:44;;;;;;;;;;;8.00;1.00;;;;;;5091418;28;19912;-81
2022/03/31 04:51:10;;;;;;;;;;;8.00;1.00;;;;;;5092527;28;20353;-81
2022/03/31 04:53:35;;;;;;;;;;;8.00;1.00;;;;;;5091709;28;19913;-81
2022/03/31 04:56:01;;;;;;;;;;;8.00;90.30;;;;;;5092715;28;19912;-80
2022/03/31 04:58:26;;;;;;;;;;;7.90;26.80;;;;;;5093055;28;19912;-80
2022/03/31 05:00:52;;;;;;;;;;;8.00;99.90;;;;;;5092045;28;19919;-80
2022/03/31 05:03:18;;;;;;;;;;;8.00;99.90;;;;;;5092315;28;19918;-80
2022/03/31 05:05:43;;;;;;;;;;;8.10;99.90;;;;;;5091412;28;19926;-81
2022/03/31 05:08:09;;;;;;;;;;;8.10;97.20;;;;;;5096148;28;19912;-80
2022/03/31 05:10:35;;;;;;;;;;;8.10;1.00;;;;;;5097304;28;19930;-81
2022/03/31 05:13:00;;;;;;;;;;;8.10;99.90;;;;;;5096898;28;20507;-81
2022/03/31 05:15:26;;;;;;;;;;;8.10;99.90;;;;;;5096419;28;19947;-81
2022/03/31 05:17:51;;;;;;;;;;;8.10;99.90;;;;;;5095833;28;19919;-80
2022/03/31 05:20:17;;;;;;;;;;;8.10;99.90;;;;;;5095291;28;20258;-81
2022/03/31 05:22:42;;;;;;;;;;;8.10;99.90;;;;;;5096784;28;19916;-80
2022/03/31 05:25:09;;;;;;;;;;;8.20;99.90;;;;;;5095676;28;19916;-80
2022/03/31 05:27:45;;;;;;;;;;;8.20;99.90;;;;;;5094978;28;19912;-79
2022/03/31 05:30:11;;;;;;;;;;;8.30;99.90;;;;;;5127286;27;20027;-81
2022/03/31 05:32:37;;;;;;;;;;;8.30;99.90;;;;;;5097880;28;19908;-80
2022/03/31 05:35:03;;;;;;;;;;;8.30;38.60;;;;;;5099077;28;19931;-81
2022/03/31 05:37:28;;;;;;;;;;;8.30;99.90;;;;;;5107008;28;19912;-82
2022/03/31 05:39:53;;;;;;;;;;;8.30;99.90;;;;;;5098966;28;19918;-83
2022/03/31 05:42:19;;;;;;;;;;;8.40;99.90;;;;;;5092053;28;19911;-83
2022/03/31 05:44:44;;;;;;;;;;;8.40;99.90;;;;;;5104895;28;19908;-83
2022/03/31 05:47:10;;;;;;;;;;;8.40;99.90;;;;;;5110908;28;19918;-83
2022/03/31 05:49:35;;;;;;;;;;;8.40;99.90;;;;;;5113871;28;19912;-83
2022/03/31 05:52:01;;;;;;;;;;;8.50;99.90;;;;;;5109578;28;20002;-83
2022/03/31 05:54:26;;;;;;;;;;;8.50;1.00;;;;;;5105909;28;19919;-83
2022/03/31 05:56:52;;;;;;;;;;;8.60;1.00;;;;;;5102761;28;19912;-82
2022/03/31 05:59:17;;;;;;;;;;;8.60;1.00;;;;;;5109140;28;20380;-84
2022/03/31 06:01:43;;;;;;;;;;;8.60;1.00;;;;;;5105564;28;20326;-82
2022/03/31 06:04:09;;;;;;;;;;;8.60;99.90;;;;;;5097522;28;19941;-82
2022/03/31 06:06:34;;;;;;;;;;;8.70;99.90;;;;;;5102138;28;19911;-83
2022/03/31 06:09:00;;;;;;;;;;;8.70;99.90;;;;;;5108466;28;20440;-83
2022/03/31 06:11:25;;;;;;;;;;;8.70;99.90;;;;;;5115392;28;19908;-83
2022/03/31 06:13:51;;;;;;;;;;;8.60;99.90;;;;;;5097557;28;19961;-83
2022/03/31 06:16:16;;;;;;;;;;;8.60;1.00;;;;;;5096924;28;20303;-83
2022/03/31 06:18:42;;;;;;;;;;;8.60;1.00;;;;;;5104043;28;19912;-82
2022/03/31 06:21:08;;;;;;;;;;;8.60;1.00;;;;;;5098246;28;19912;-83
2022/03/31 06:23:33;;;;;;;;;;;8.60;1.00;;;;;;5094580;28;19916;-81
2022/03/31 06:25:59;;;;;;;;;;;8.70;99.90;;;;;;5094745;28;20542;-82
2022/03/31 06:28:26;;;;;;;;;;;8.70;99.90;;;;;;5098492;28;19916;-82
2022/03/31 06:30:51;;;;;;;;;;;8.70;1.00;;;;;;5090713;28;19916;-82
2022/03/31 06:33:17;;;;;;;;;;;8.70;99.90;;;;;;5092239;28;20490;-81
2022/03/31 06:35:43;;;;;;;;;;;8.70;99.90;;;;;;5092118;28;19934;-82
2022/03/31 06:38:09;;;;;;;;;;;8.70;1.00;;;;;;5087939;28;19916;-81
2022/03/31 06:40:37;;;;;;;;;;;8.80;1.00;;;;;;5096413;28;20340;-83
2022/03/31 06:43:03;;;;;;;;;;;8.80;99.90;;;;;;5091248;28;19951;-81
2022/03/31 06:45:29;;;;;;;;;;;8.70;1.00;;;;;;5093517;28;19915;-82
2022/03/31 06:47:55;;;;;;;;;;;8.70;99.90;;;;;;5093472;28;19950;-83
2022/03/31 06:50:20;;;;;;;;;;;8.70;99.90;;;;;;5094041;28;19916;-82
2022/03/31 06:52:45;;;;;;;;;;;8.70;99.90;;;;;;5093292;28;19912;-82
2022/03/31 06:55:11;;;;;;;;;;;8.70;95.00;;;;;;5091976;28;20055;-83
2022/03/31 06:57:37;;;;;;;;;;;8.70;97.30;;;;;;5088728;28;19919;-82
2022/03/31 07:00:04;;;;;;;;;;;8.80;82.80;;;;;;5092702;28;20007;-82
2022/03/31 07:02:30;;;;;;;;;;;8.80;54.10;;;;;;5126058;28;19916;-82
2022/03/31 07:04:55;;;;;;;;;;;8.80;1.00;;;;;;5092036;28;20063;-83
2022/03/31 07:07:21;;;;;;;;;;;8.80;1.00;;;;;;5092579;28;19927;-83
2022/03/31 07:09:46;;;;;;;;;;;8.90;1.00;;;;;;5104139;28;20275;-83
2022/03/31 07:12:12;;;;;;;;;;;8.90;1.00;;;;;;5104086;28;19926;-83
2022/03/31 07:14:37;;;;;;;;;;;8.90;1.00;;;;;;5101536;28;20376;-83
2022/03/31 07:17:03;;;;;;;;;;;9.00;1.00;;;;;;5104957;28;19909;-83
2022/03/31 07:19:29;;;;;;;;;;;8.90;99.90;;;;;;5091778;28;19916;-83
2022/03/31 07:21:55;;;;;;;;;;;8.90;99.90;;;;;;5090402;28;19913;-82
2022/03/31 07:24:20;;;;;;;;;;;8.90;99.90;;;;;;5090682;28;20054;-82
2022/03/31 07:26:46;;;;;;;;;;;8.90;99.90;;;;;;5091439;28;19920;-83
2022/03/31 07:29:11;;;;;;;;;;;8.90;1.00;;;;;;5089101;28;19979;-83
2022/03/31 07:31:36;;;;;;;;;;;8.90;99.90;;;;;;5091841;28;19999;-82
2022/03/31 07:34:02;;;;;;;;;;;9.00;99.90;;;;;;5089949;28;19916;-84
2022/03/31 07:36:27;;;;;;;;;;;9.10;1.00;;;;;;5093239;28;19922;-83
2022/03/31 07:38:53;;;;;;;;;;;9.40;1.00;;;;;;5091412;28;19912;-83
2022/03/31 07:41:18;;;;;;;;;;;9.50;1.00;;;;;;5093493;28;19955;-83
2022/03/31 07:43:44;;;;;;;;;;;9.60;1.00;;;;;;5093928;28;19912;-83
2022/03/31 07:46:10;;;;;;;;;;;9.70;1.00;;;;;;5098062;28;19964;-83
2022/03/31 07:48:36;;;;;;;;;;;9.80;99.90;;;;;;5091706;28;19918;-83
2022/03/31 07:51:01;;;;;;;;;;;9.90;99.90;;;;;;5098634;28;19963;-83
2022/03/31 07:53:27;;;;;;;;;;;9.90;99.90;;;;;;5098607;28;19920;-83
2022/03/31 07:55:54;;;;;;;;;;;10.00;99.90;;;;;;5091410;28;19912;-83
2022/03/31 07:58:19;;;;;;;;;;;10.10;99.90;;;;;;5094992;28;20312;-82
2022/03/31 08:00:50;;;;;;;;;;;10.20;99.90;;;;;;5096482;28;19922;-82
2022/03/31 08:03:16;;;;;;;;;;;10.30;1.00;;;;;;5095137;28;19927;-81
2022/03/31 08:05:42;;;;;;;;;;;10.40;1.00;;;;;;5094504;28;20299;-82
2022/03/31 08:08:07;;;;;;;;;;;10.40;1.00;;;;;;5093909;28;19988;-82
2022/03/31 08:10:34;;;;;;;;;;;10.40;99.90;;;;;;5101562;28;19924;-82
2022/03/31 08:12:59;;;;;;;;;;;10.40;1.00;;;;;;5096141;28;19938;-84
2022/03/31 08:15:25;;;;;;;;;;;10.50;1.00;;;;;;5094309;28;19925;-82
2022/03/31 08:17:51;;;;;;;;;;;10.50;99.90;;;;;;5096127;28;19957;-82
2022/03/31 08:20:17;;;;;;;;;;;10.70;99.90;;;;;;5094284;28;19920;-82
2022/03/31 08:22:42;;;;;;;;;;;10.90;99.90;;;;;;5095926;28;20388;-82
2022/03/31 08:25:08;;;;;;;;;;;11.10;99.90;;;;;;5095281;28;19924;-82
2022/03/31 08:27:35;;;;;;;;;;;11.30;53.40;;;;;;5094737;28;19919;-83
2022/03/31 08:30:05;;;;;;;;;;;11.70;1.00;;;;;;5092831;28;20257;-83
2022/03/31 08:32:34;;;;;;;;;;;11.90;1.00;;;;;;5091077;28;19920;-83
2022/03/31 08:35:01;;;;;;;;;;;12.10;1.00;;;;;;5095629;28;19975;-83
2022/03/31 08:37:26;;;;;;;;;;;12.00;1.00;;;;;;5094658;28;19912;-83
2022/03/31 08:39:52;;;;;;;;;;;11.80;1.00;;;;;;5094878;28;19912;-83
2022/03/31 08:42:18;;;;;;;;;;;11.70;1.00;;;;;;5093194;28;19926;-83
2022/03/31 08:44:43;;;;;;;;;;;11.50;1.00;;;;;;5092855;28;19912;-84
2022/03/31 08:47:09;;;;;;;;;;;11.50;1.00;;;;;;5094678;28;19912;-84
2022/03/31 08:49:35;;;;;;;;;;;11.40;1.00;;;;;;5098907;28;19920;-84
2022/03/31 08:52:01;;;;;;;;;;;11.20;1.00;;;;;;5097249;28;20283;-83
2022/03/31 08:54:26;;;;;;;;;;;10.90;1.00;;;;;;5095519;28;19912;-82
2022/03/31 08:56:53;;;;;;;;;;;10.40;1.00;;;;;;5096700;28;19912;-83
2022/03/31 08:59:18;;;;;;;;;;;10.00;1.00;;;;;;5090230;28;20056;-83
2022/03/31 09:01:44;;;;;;;;;;;9.60;1.00;;;;;;5094948;28;19916;-83
2022/03/31 09:04:22;;;;;;;;;;;9.40;99.90;;;;;;5095003;28;19999;-83
2022/03/31 09:06:47;;;;;;;;;;;9.20;99.90;;;;;;5090252;28;19912;-82
2022/03/31 09:09:14;;;;;;;;;;;9.00;99.90;;;;;;5092628;28;19919;-83
2022/03/31 09:11:44;;;;;;;;;;;8.90;1.00;;;;;;5094230;28;19915;-83
2022/03/31 09:14:09;;;;;;;;;;;8.90;1.00;;;;;;5094721;28;19990;-82
2022/03/31 09:16:36;;;;;;;;;;;8.90;99.90;;;;;;5092220;28;19959;-82
2022/03/31 09:19:07;;;;;;;;;;;8.90;1.00;;;;;;5093123;28;19912;-83
2022/03/31 09:21:32;;;;;;;;;;;9.00;99.90;;;;;;5092270;28;19972;-83
2022/03/31 09:23:58;;;;;;;;;;;9.20;1.00;;;;;;5093705;28;19916;-83
2022/03/31 09:26:27;;;;;;;;;;;9.30;1.00;;;;;;5094035;28;19965;-83
2022/03/31 09:28:54;;;;;;;;;;;9.50;1.00;;;;;;5094599;28;19954;-83
2022/03/31 09:31:23;;;;;;;;;;;9.60;99.90;;;;;;5093521;28;20063;-83
2022/03/31 09:33:54;;;;;;;;;;;9.70;99.90;;;;;;5089004;28;19935;-83
2022/03/31 09:36:24;;;;;;;;;;;9.80;99.90;;;;;;5092816;28;19920;-82
2022/03/31 09:38:55;;;;;;;;;;;9.80;99.90;;;;;;5089849;28;19912;-83
2022/03/31 09:41:23;;;;;;;;;;;9.80;41.40;;;;;;5092597;28;19920;-83
2022/03/31 09:43:49;;;;;;;;;;;9.80;92.10;;;;;;5094939;28;20398;-83
2022/03/31 09:46:21;;;;;;;;;;;9.80;70.70;;;;;;5096648;28;19912;-84
2022/03/31 09:48:48;;;;;;;;;;;9.70;1.00;;;;;;5092889;28;20295;-83
2022/03/31 09:51:13;;;;;;;;;;;9.60;98.20;;;;;;5092655;28;19916;-84
2022/03/31 09:53:40;;;;;;;;;;;9.60;26.50;;;;;;5095649;28;20276;-84
2022/03/31 09:56:06;;;;;;;;;;;9.60;71.70;;;;;;5091039;28;19920;-83
2022/03/31 09:58:34;;;;;;;;;;;9.60;87.40;;;;;;5080944;28;19965;-83
2022/03/31 10:01:00;;;;;;;;;;;9.60;25.60;;;;;;5096535;28;20044;-83
2022/03/31 10:03:26;;;;;;;;;;;9.50;20.30;;;;;;5099082;28;19924;-83
2022/03/31 10:05:51;;;;;;;;;;;9.50;8.20;;;;;;5106823;28;19920;-82
2022/03/31 10:08:17;;;;;;;;;;;9.50;1.00;;;;;;5101775;28;20365;-82
2022/03/31 10:10:43;;;;;;;;;;;9.50;1.00;;;;;;5096625;28;20368;-83
2022/03/31 10:13:12;;;;;;;;;;;9.50;1.00;;;;;;5092958;28;19918;-83
2022/03/31 10:15:39;;;;;;;;;;;9.50;1.00;;;;;;5093527;28;20413;-83
2022/03/31 10:18:04;;;;;;;;;;;9.50;1.00;;;;;;5093879;28;19912;-83
2022/03/31 10:20:30;;;;;;;;;;;9.50;1.00;;;;;;5092885;28;19962;-84
2022/03/31 10:25:45;;;;;;;;;;;9.40;1.00;;;;;;5086532;28;19971;-83
2022/03/31 10:28:23;;;;;;;;;;;9.50;1.00;;;;;;5094892;28;19916;-83
2022/03/31 10:31:08;;;;;;;;;;;9.50;1.00;;;;;;5093490;28;19924;-81
2022/03/31 10:33:37;;;;;;;;;;;9.40;1.00;;;;;;5090396;28;20269;-83
2022/03/31 10:36:09;;;;;;;;;;;9.40;1.00;;;;;;5094172;28;19955;-83
2022/03/31 10:38:35;;;;;;;;;;;9.40;1.00;;;;;;5092644;28;19912;-83
2022/03/31 10:41:06;;;;;;;;;;;9.40;1.00;;;;;;5092517;28;19995;-83
2022/03/31 10:43:32;;;;;;;;;;;9.40;1.00;;;;;;5094718;28;19965;-83
2022/03/31 10:46:00;;;;;;;;;;;9.40;1.00;;;;;;5092215;28;20357;-83
2022/03/31 10:48:27;;;;;;;;;;;9.40;1.00;;;;;;5090616;28;19931;-83
2022/03/31 10:51:02;;;;;;;;;;;9.30;1.00;;;;;;5090880;28;19923;-83
2022/03/31 10:53:28;;;;;;;;;;;9.20;1.00;;;;;;5089463;28;20033;-82
2022/03/31 10:55:55;;;;;;;;;;;9.10;1.00;;;;;;5094925;28;19919;-83
2022/03/31 10:58:30;;;;;;;;;;;9.10;1.00;;;;;;5087761;28;19962;-82
2022/03/31 11:00:56;;;;;;;;;;;9.00;1.00;;;;;;5106447;28;19916;-82
2022/03/31 11:03:22;;;;;;;;;;;9.00;1.00;;;;;;5090856;28;19947;-83
2022/03/31 11:05:48;;;;;;;;;;;8.90;1.00;;;;;;5094158;28;19923;-83
2022/03/31 11:08:17;;;;;;;;;;;8.90;1.00;;;;;;5091318;28;19913;-82
2022/03/31 11:10:47;;;;;;;;;;;8.70;1.00;;;;;;5091919;28;20032;-82
2022/03/31 11:13:15;;;;;;;;;;;8.60;1.00;;;;;;5093505;28;19959;-83
2022/03/31 11:15:41;;;;;;;;;;;8.60;3.70;;;;;;5093355;28;20288;-83
2022/03/31 11:18:07;;;;;;;;;;;8.60;44.00;;;;;;5094187;28;19912;-82
2022/03/31 11:20:33;;;;;;;;;;;8.60;1.00;;;;;;5098896;28;19912;-83
2022/03/31 11:23:03;;;;;;;;;;;8.60;56.90;;;;;;5096072;28;20360;-83
2022/03/31 11:25:29;;;;;;;;;;;8.70;23.80;;;;;;5095754;28;19923;-83
2022/03/31 11:27:58;;;;;;;;;;;8.60;43.00;;;;;;5096946;28;19923;-83
2022/03/31 11:30:24;;;;;;;;;;;8.70;75.00;;;;;;5097218;28;20014;-83
2022/03/31 11:32:54;;;;;;;;;;;8.70;25.20;;;;;;5092509;28;19947;-83
2022/03/31 11:35:21;;;;;;;;;;;8.70;52.40;;;;;;5096533;28;19994;-81
2022/03/31 11:37:51;;;;;;;;;;;8.80;99.90;;;;;;5095702;28;19916;-82
2022/03/31 11:40:37;;;;;;;;;;;8.80;99.90;;;;;;5097335;28;19965;-82
2022/03/31 11:43:04;;;;;;;;;;;8.70;72.50;;;;;;5096268;28;19912;-83
2022/03/31 11:45:33;;;;;;;;;;;8.50;49.20;;;;;;5128124;27;19916;-83
2022/03/31 11:47:59;;;;;;;;;;;8.40;88.00;;;;;;5096945;28;19927;-82
2022/03/31 11:50:26;;;;;;;;;;;8.20;99.90;;;;;;5097618;28;19916;-82
2022/03/31 11:52:52;;;;;;;;;;;8.00;99.90;;;;;;5094484;28;20437;-83
2022/03/31 11:55:20;;;;;;;;;;;8.00;99.90;;;;;;5095590;28;19916;-83
2022/03/31 11:57:53;;;;;;;;;;;8.00;1.00;;;;;;5096726;28;19912;-83
2022/03/31 12:00:19;;;;;;;;;;;7.90;1.00;;;;;;5095716;28;20299;-83
2022/03/31 12:02:58;;;;;;;;;;;7.80;99.90;;;;;;5085959;28;19977;-83
2022/03/31 12:05:24;;;;;;;;;;;7.80;99.90;;;;;;5095578;28;20422;-83
2022/03/31 12:07:50;;;;;;;;;;;7.80;99.90;;;;;;5094282;28;19913;-83
2022/03/31 12:10:16;;;;;;;;;;;7.90;20.30;;;;;;5095401;28;19916;-83
2022/03/31 12:12:48;;;;;;;;;;;7.80;1.00;;;;;;5094290;28;19957;-82
2022/03/31 12:15:18;;;;;;;;;;;7.80;99.90;;;;;;5090149;28;19923;-83
2022/03/31 12:17:54;;;;;;;;;;;7.80;1.00;;;;;;5095171;28;20016;-83
2022/03/31 12:20:20;;;;;;;;;;;7.80;99.90;;;;;;5091384;28;19918;-83
2022/03/31 12:22:46;;;;;;;;;;;7.80;1.00;;;;;;5094142;28;19916;-83
2022/03/31 12:25:11;;;;;;;;;;;7.70;99.90;;;;;;5093332;28;19931;-79
2022/03/31 12:27:46;;;;;;;;;;;7.50;99.90;;;;;;5093199;28;20384;-78
2022/03/31 12:30:13;;;;;;;;;;;7.40;99.90;;;;;;5090770;28;19947;-78
2022/03/31 12:32:48;;;;;;;;;;;7.30;99.90;;;;;;5093655;28;20354;-79
2022/03/31 12:35:14;;;;;;;;;;;7.30;1.00;;;;;;5093821;28;19912;-78
2022/03/31 12:37:41;;;;;;;;;;;7.40;99.90;;;;;;5092438;28;19927;-79
2022/03/31 12:40:11;;;;;;;;;;;7.50;4.80;;;;;;5092447;28;19913;-78
2022/03/31 12:42:37;;;;;;;;;;;7.50;99.90;;;;;;5122646;27;20011;-78
2022/03/31 12:45:12;;;;;;;;;;;7.50;1.00;;;;;;5093883;28;20336;-79
2022/03/31 12:47:41;;;;;;;;;;;7.50;1.00;;;;;;5093775;28;19916;-79
2022/03/31 12:50:14;;;;;;;;;;;7.60;99.90;;;;;;5090564;28;20011;-78
2022/03/31 12:52:39;;;;;;;;;;;7.70;1.00;;;;;;5091472;28;20338;-79
2022/03/31 12:55:05;;;;;;;;;;;7.70;99.90;;;;;;5093415;28;19912;-79
2022/03/31 12:57:30;;;;;;;;;;;7.60;47.60;;;;;;5090793;28;21728;-84
2022/03/31 13:00:15;;;;;;;;;;;7.60;1.00;;;;;;5095483;28;20273;-82
2022/03/31 13:02:43;;;;;;;;;;;7.50;1.00;;;;;;5090916;28;19912;-82
2022/03/31 13:05:08;;;;;;;;;;;7.40;1.00;;;;;;5096627;28;20332;-82
2022/03/31 13:07:34;;;;;;;;;;;7.30;99.90;;;;;;5091705;28;19916;-83
2022/03/31 13:10:00;;;;;;;;;;;7.20;1.00;;;;;;5093959;28;20010;-83
2022/03/31 13:12:26;;;;;;;;;;;7.00;1.00;;;;;;5091006;28;19993;-83
2022/03/31 13:14:52;;;;;;;;;;;7.10;99.90;;;;;;5093400;28;19927;-83
2022/03/31 13:17:18;;;;;;;;;;;7.20;1.00;;;;;;5091631;28;20364;-82
2022/03/31 13:19:44;;;;;;;;;;;7.20;1.00;;;;;;5093359;28;19912;-83
2022/03/31 13:22:12;;;;;;;;;;;7.30;99.90;;;;;;5093235;28;19912;-81
2022/03/31 13:24:38;;;;;;;;;;;7.20;1.00;;;;;;5090595;28;19915;-83
2022/03/31 13:27:03;;;;;;;;;;;7.20;99.90;;;;;;5093585;28;20403;-83
2022/03/31 13:29:29;;;;;;;;;;;7.30;1.00;;;;;;5089846;28;19951;-83
2022/03/31 13:31:55;;;;;;;;;;;7.10;99.90;;;;;;5090520;28;19939;-83
2022/03/31 13:34:21;;;;;;;;;;;7.20;8.30;;;;;;5090335;28;19912;-83
2022/03/31 13:36:47;;;;;;;;;;;7.30;68.40;;;;;;5090677;28;19975;-82
2022/03/31 13:39:15;;;;;;;;;;;7.30;99.90;;;;;;5092728;28;20355;-82
2022/03/31 13:41:41;;;;;;;;;;;7.20;5.00;;;;;;5090309;28;19913;-82
2022/03/31 13:44:07;;;;;;;;;;;7.20;1.00;;;;;;5092566;28;19961;-83
2022/03/31 13:46:33;;;;;;;;;;;7.40;99.90;;;;;;5088526;28;19920;-82
2022/03/31 13:48:58;;;;;;;;;;;7.50;99.90;;;;;;5091078;28;19916;-83
2022/03/31 13:51:24;;;;;;;;;;;7.50;1.00;;;;;;5091330;28;19923;-82
2022/03/31 13:53:53;;;;;;;;;;;7.40;99.90;;;;;;5091015;28;19919;-83
2022/03/31 13:56:20;;;;;;;;;;;7.30;1.00;;;;;;5089975;28;19912;-83
2022/03/31 14:01:31;;;;;;;;;;;7.10;1.00;;;;;;5091576;28;19942;-83
2022/03/31 14:03:57;;;;;;;;;;;7.10;1.00;;;;;;5093496;28;19915;-82
2022/03/31 14:06:22;;;;;;;;;;;6.90;1.00;;;;;;5091970;28;19912;-83
2022/03/31 14:08:49;;;;;;;;;;;6.80;1.00;;;;;;5091689;28;19918;-83
2022/03/31 14:11:14;;;;;;;;;;;6.90;1.00;;;;;;5093958;28;19928;-83
2022/03/31 14:13:40;;;;;;;;;;;7.00;99.90;;;;;;5095130;28;19955;-82
2022/03/31 14:16:06;;;;;;;;;;;7.20;1.00;;;;;;5094174;28;19912;-82
2022/03/31 14:18:34;;;;;;;;;;;7.10;99.90;;;;;;5092987;28;19912;-83
2022/03/31 14:21:00;;;;;;;;;;;7.20;99.90;;;;;;5091028;28;20310;-83
2022/03/31 14:23:26;;;;;;;;;;;7.10;99.90;;;;;;5092065;28;19912;-83
2022/03/31 14:25:54;;;;;;;;;;;7.10;42.30;;;;;;5091131;28;19919;-82
2022/03/31 14:28:20;;;;;;;;;;;7.10;99.90;;;;;;5088041;28;19959;-83
2022/03/31 14:30:46;;;;;;;;;;;7.10;1.00;;;;;;5091196;28;19916;-82
2022/03/31 14:33:12;;;;;;;;;;;7.20;1.00;;;;;;5091341;28;21442;-82
2022/03/31 14:35:38;;;;;;;;;;;7.10;1.00;;;;;;5092816;28;20015;-82
2022/03/31 14:38:03;;;;;;;;;;;7.10;99.90;;;;;;5093934;28;19957;-82
2022/03/31 14:40:29;;;;;;;;;;;6.90;99.90;;;;;;5091109;28;20403;-82
2022/03/31 14:42:54;;;;;;;;;;;6.80;1.00;;;;;;5091227;28;19919;-82
2022/03/31 14:45:20;;;;;;;;;;;6.70;99.90;;;;;;5089875;28;19946;-82
2022/03/31 14:47:49;;;;;;;;;;;6.60;99.90;;;;;;5092827;28;19958;-83
2022/03/31 14:50:14;;;;;;;;;;;6.40;1.00;;;;;;5094666;28;19916;-81